Date,TemperatureHighF,TemperatureAvgF,TemperatureLowF,DewpointHighF,DewpointAvgF,DewpointLowF,HumidityHigh,HumidityAvg,HumidityLow,PressureMaxIn,PressureMinIn,WindSpeedMaxMPH,WindSpeedAvgMPH,GustSpeedMaxMPH,PrecipitationSumIn
2013-7-1,77.4,65.0,55.0,60.8,56.3,52.7,93,75,49,29.91,29.82,14,3,18,0.00
2013-7-2,78.5,63.3,55.7,61.6,56.8,54.1,96,81,52,29.98,29.87,17,4,21,0.00
2013-7-3,76.0,63.3,55.6,63.0,57.3,54.7,98,83,56,29.96,29.82,12,4,18,0.00
2013-7-4,74.7,62.3,56.0,60.5,56.8,54.0,98,84,58,29.83,29.78,16,4,16,0.00
2013-7-5,61.6,57.3,55.0,54.5,53.2,51.8,93,86,76,29.86,29.80,15,6,20,0.00
2013-7-6,62.9,56.0,53.3,53.9,52.2,51.3,94,87,72,29.86,29.81,14,5,18,0.00
2013-7-7,65.6,57.7,53.3,54.7,52.9,51.6,96,85,66,29.90,29.83,16,5,21,0.00
2013-7-8,67.8,58.0,54.1,55.8,53.3,51.9,95,85,64,30.01,29.90,13,4,17,0.00
2013-7-9,77.0,60.9,52.9,59.1,54.9,52.0,98,83,53,30.03,29.98,12,4,14,0.00
2013-7-10,66.6,57.7,52.5,60.6,54.4,51.9,99,89,70,30.03,29.96,12,4,16,0.00
2013-7-11,63.2,55.7,52.5,54.8,52.5,51.3,97,90,71,29.98,29.95,14,3,18,0.00
2013-7-12,65.6,57.0,52.9,55.5,52.5,50.9,94,86,68,29.98,29.94,13,4,17,0.00
2013-7-13,68.3,57.4,51.1,56.5,52.8,50.2,98,86,63,30.00,29.94,12,4,16,0.00
2013-7-14,65.0,56.4,51.6,56.7,52.8,50.2,98,89,69,30.04,29.96,12,4,18,0.00
2013-7-15,63.5,55.6,51.9,54.4,52.7,51.3,98,91,71,29.97,29.89,12,4,17,0.01
2013-7-16,65.6,58.4,55.0,56.9,54.6,52.5,98,88,67,30.05,29.92,16,4,19,0.03
2013-7-17,68.8,61.6,54.4,57.9,55.6,52.9,95,82,66,30.10,30.04,12,4,17,0.00
2013-7-18,67.8,56.9,52.3,58.4,53.8,51.1,98,90,71,30.09,30.00,14,3,16,0.00
2013-7-19,66.9,55.8,52.5,56.3,53.2,51.6,99,92,67,29.99,29.89,12,3,14,0.00
2013-7-20,60.5,54.4,52.0,56.6,52.8,51.7,100,95,79,29.91,29.83,12,4,17,0.00
2013-7-21,66.8,56.8,52.3,56.5,53.7,51.4,99,90,69,29.94,29.82,16,4,19,0.00
2013-7-22,70.3,60.3,54.7,60.7,56.8,53.8,99,89,70,29.98,29.91,12,4,17,0.00
2013-7-23,72.1,62.1,56.5,60.5,57.1,55.3,97,85,66,30.03,29.98,14,4,18,0.00
2013-7-24,70.9,59.9,53.9,61.1,56.4,53.6,99,89,64,30.01,29.95,13,3,16,0.00
2013-7-25,66.1,57.5,52.5,58.6,54.9,52.2,100,92,73,30.07,29.97,13,3,17,0.00
2013-7-26,65.6,57.6,53.8,58.3,55.3,53.5,100,93,73,30.14,30.06,13,4,17,0.00
2013-7-27,66.0,57.5,54.1,60.3,55.2,54.0,100,93,73,30.07,29.92,13,4,18,0.01
2013-7-28,60.5,56.1,53.9,57.0,54.5,53.3,100,95,85,29.93,29.89,13,4,157,0.00
2013-7-29,63.9,58.1,55.1,56.8,54.5,53.4,95,88,76,30.06,29.91,15,4,19,0.00
2013-7-30,66.3,59.2,56.2,56.5,54.4,53.4,91,85,70,30.12,30.06,18,5,21,0.00
2013-7-31,63.2,57.5,54.5,54.3,53.0,51.4,94,85,72,30.13,30.06,13,4,18,0.00